AirNav   Everest Fuels
 
 1355 users online  

FL55 Sanford Seaplane Base
Sanford, Florida, USA

GOING TO SANFORD?


FAA INFORMATION EFFECTIVE 07 NOVEMBER 2019

Location

FAA Identifier: FL55
Lat/Long: 28-49-22.0000N 081-15-48.0000W
28-49.366667N 081-15.800000W
28.8227778,-81.2633333
(estimated)
Elevation: 6 ft. / 2 m (estimated)
Variation: 05W (2000)
Time zone: UTC -5 (UTC -4 during Daylight Saving Time)
Zip code: 32771

Seaplane Base Operations

Seaplane Base use: Private use. Permission required prior to landing
Activation date: 01/2001
Control tower: no
ARTCC: JACKSONVILLE CENTER
FSS: SAINT PETERSBURG FLIGHT SERVICE STATION
Attendance: UNATNDD
Segmented circle: no

Seaplane Base Communications

WX ASOS at SFB (3 nm SE): PHONE 407-321-9384
WX AWOS-3 at DED (15 nm N): 119.575 (386-740-5811)
WX ASOS at ORL (17 nm S): PHONE 407-658-6753

Nearby radio navigation aids

VOR radial/distance  VOR name  Freq  Var
ORLr013/17.2ORLANDO VORTAC112.2000E
OMNr195/29.9ORMOND BEACH VORTAC112.6000E

Seaplane Base Services

Runway Information

Runway 9W/27W

Dimensions: 4000 x 1000 ft. / 1219 x 305 m
Surface: water
RUNWAY 9W  RUNWAY 27W
Traffic pattern: leftleft

Seaplane Base Ownership and Management from official FAA records

Ownership: Privately-owned
Owner: LOUIS D. BELL
448 LUFBERRY CIRCLE
WILLIAMSON, GA 30292
Phone 352-516-0000
Manager: LOUIS D. BELL
448 LUFBERRY CIRCLE
WILLIAMSON, GA 30292
Phone 352-516-0000

Additional Remarks

FOR CD CTC ORLANDO APCH AT 407-852-7553.

Instrument Procedures

There are no published instrument procedures at FL55.

Some nearby airports with instrument procedures:

KSFB - Orlando Sanford International Airport (3 nm SE)
KDED - DeLand Municipal Airport-Sidney H Taylor Field (15 nm N)
KORL - Executive Airport (17 nm S)
X04 - Orlando Apopka Airport (18 nm W)
X50 - Massey Ranch Airpark (20 nm NE)
 
Loc | Ops | Rwys | IFR | FBO | Links
Com | Nav | Svcs | Stats | Notes


 
Area around FL55 (Sanford Seaplane Base)
 
Road maps at: MapQuest Bing Google
 
Aerial photo
No photo
 
Sectional chart

 
Airport distance calculator
Flying to Sanford Seaplane Base? Find the distance to fly.

From to FL55

Sunrise and sunset
Times for 13-Nov-2019
 Local
(UTC-5)
 Zulu
(UTC)
Morning civil twilight06:2311:23
Sunrise06:4811:48
Sunset17:3122:31
Evening civil twilight17:5622:56

Current date and time
Zulu (UTC)  13-Nov-2019 17:58:44
Local (UTC-5)  13-Nov-2019 12:58:44
 
METAR
KSFB 
4nm SE 
131753Z 02014G20KT 10SM SCT025 OVC041 19/13 A3011 RMK AO2 SLP196 T01890133 10200 20144 58011
KDED 
15nm N 
131735Z AUTO 03012G23KT 10SM SCT034 OVC046 18/12 A3014 RMK AO2
KORL 
17nm S 
131753Z 03013G21KT 10SM OVC025 20/13 A3011 RMK AO2 PK WND 02027/1703 SLP201 T02000128 10206 20156 58009
TAF
KSFB 
4nm SE 
131518Z 1315/1412 36012KT P6SM BKN028 OVC035 FM131700 03016G23KT P6SM BKN028 FM140000 02007KT P6SM BKN035
NOTAMs
Click for the latest NOTAMs
NOTAMs are issued by the DoD/FAA and will open in a separate window not controlled by AirNav.

 

 
 

Aviation Businesses, Services, and Facilities

  
 Business Name 
 
 Contact 
 
 Services / Description 
 
Distance
 
Comments
  
Eastern Seaplanes 352-516-0000
[web site]
[email]
Flight training

More info about Eastern Seaplanes
on airport  
   write
 

Would you like to see your business listed on this page?

 If your business provides an interesting product or service to pilots, flight crews, aircraft, or users of the Sanford Seaplane Base, you should consider listing it here.  To start the listing process, click on the button below
 
Add a business
 

Other Pages about Sanford Seaplane Base

Update a link
 
Copyright © AirNav, LLC. All rights reserved. Privacy Policy  Contact